SAN weather

Public forecast

Using degrees Fahrenheit for public forecast. Weather courtesy of forecast.io.

Current aviation weather report (METAR) for San Diego International Airport

Retrieved 2020/08/10 09:51 UTC (15 minutes ago):

KSAN 100951Z 30003KT 10SM OVC011 19/16 A2993 RMK AO2 SLP136 T01890156

Aviation forecast (TAF) for San Diego International Airport

Retrieved 2020/08/10 06:22 UTC (4 hours ago):

TAF KSAN 100520Z 1006/1112 VRB04KT P6SM BKN012 FM101600 VRB04KT P6SM SCT015 FM101900 28011KT P6SM SKC FM110300 VRB04KT P6SM SCT010 FM110600 VRB04KT P6SM BKN010